YBCS Airport Information

Runway Information
Runway 12 Length 3035 ft width 60 ft
Elevation 9 ft Threshold 0 ft Heading 126
Runway 30 Length 3035 ft Width 60 ft
Elevation 6 ft Threshold 0 ft Heading 306
Runway 15 Length 10489 ft width 148 ft
Elevation 9 ft Threshold 0 ft Heading 156
Runway 33 Length 10489 ft Width 148 ft
Elevation 7 ft Threshold 0 ft Heading 336
Airport Frequencies
Type A/D Name APP/DEP Frequency 118.4 MHZ
Type ATIS Name ATIS Frequency 113 MHZ
Type CLD Name CLNC DEL Frequency 121.7 MHZ
Type GND Name GND Frequency 121.7 MHZ
Type TWR Name TWR Frequency 124.9 MHZ
Airport Navaids
Type VOR-DME Name Cairns Frequency 113000 KHZ
Type NDB Name Cairns Frequency 364 KHZ
Airport Weather Information & NOTAM
ADDS - METARS form results

(1108 UTC 23 March 2019)
Data provider http://aviationweather.gov/metar/data/
 
METAR text: YBCS 231100Z AUTO 13008KT 090V160 9999 // NCD 26/24 Q1012 INTER 1100/1300 3000 SHRA BKN018
Conditions at: YBCS (CAIRNS AIRPORT , AU) observed 1100 UTC 23 March 2019
Temperature: 26.0°C (79°F)
Dewpoint: 24.0°C (75°F) [RH = 89%]
Pressure (altimeter): 29.88 inches Hg (1012.0 mb)
Winds: from the SE (130 degrees) at 9 MPH (8 knots; 4.1 m/s)
Visibility: 6 or more miles (10+ km)
Ceiling: at least 12,000 feet AGL
Clouds: sky clear below 12,000 feet AGL
Weather: no significant weather observed at this time

METAR text: YBCS 231030Z AUTO 13006KT 9999 // SCT060 26/24 Q1012 RMK RF00.0/000.2 INTER 1030/1330 3000 SHRA BKN018
Conditions at: YBCS (CAIRNS AIRPORT , AU) observed 1030 UTC 23 March 2019
Temperature: 26.0°C (79°F)
Dewpoint: 24.0°C (75°F) [RH = 89%]
Pressure (altimeter): 29.88 inches Hg (1012.0 mb)
Winds: from the SE (130 degrees) at 7 MPH (6 knots; 3.1 m/s)
Visibility: 6 or more miles (10+ km)
Ceiling: at least 12,000 feet AGL
Clouds: scattered clouds at 6000 feet AGL
Weather: no significant weather observed at this time

Forecast for: AMD
Text: TAF AMD YBCS 230753Z 2308/2406 15009KT 9999 -SHRA SCT025 BKN040
Forecast period: 0800 UTC 23 March 2019 to 0000 UTC 24 March 2019
Forecast type: FROM: standard forecast or significant change
Winds: from the SSE (150 degrees) at 10 MPH (9 knots; 4.6 m/s)
Visibility: 6 or more miles 10+ km)
Ceiling: 4000 feet AGL
Clouds: scattered clouds at 2500 feet AGL
broken clouds at 4000 feet AGL
Weather: -SHRA  (light rain showers)
Text: FM240000 08012KT 9999 -SHRA SCT030 INTER 2308/2314 3000 SHRA BKN018
Forecast period: 0000 to 0600 UTC 24 March 2019
Forecast type: FROM: standard forecast or significant change
Winds: from the E (80 degrees) at 14 MPH (12 knots; 6.2 m/s)
Visibility: 6 or more miles 10+ km)
Ceiling: at least 12,000 feet AGL
Clouds: scattered clouds at 3000 feet AGL
Weather: -SHRA  (light rain showers)
Text:
Forecast period: 0800 to 1400 UTC 23 March 2019
Forecast type: TEMPORARY: The following changes expected for less than half the time period
Visibility: 1.86 miles (2.99 km)
Ceiling: 1800 feet AGL
Clouds: broken clouds at 1800 feet AGL
Weather: SHRA  (rain showers)